createdAt,value
2018-09-04T00:00:05.703Z,60.71
2018-09-04T00:01:05.810Z,61.21
2018-09-04T00:02:05.727Z,61.25
2018-09-04T00:03:05.909Z,61
2018-09-04T00:04:05.863Z,60.93
2018-09-04T00:05:05.844Z,60.73
2018-09-04T00:06:05.869Z,61.23
2018-09-04T00:07:05.760Z,60.8
2018-09-04T00:08:05.988Z,60.6
2018-09-04T00:09:05.930Z,60.79
2018-09-04T00:10:05.797Z,61.24
2018-09-04T00:11:05.723Z,61.35
2018-09-04T00:12:05.896Z,60.9
2018-09-04T00:13:05.989Z,61.21
2018-09-04T00:14:05.882Z,60.82
2018-09-04T00:15:05.900Z,61.29
2018-09-04T00:16:05.739Z,60.58
2018-09-04T00:17:05.963Z,60.76
2018-09-04T00:18:05.873Z,60.76
2018-09-04T00:19:06.052Z,60.8
2018-09-04T00:20:05.813Z,60.8
2018-09-04T00:21:05.686Z,61
2018-09-04T00:22:05.952Z,60.68
2018-09-04T00:23:05.818Z,61.21
2018-09-04T00:24:06.019Z,61.35
2018-09-04T00:25:05.812Z,61.22
2018-09-04T00:26:05.860Z,60.75
2018-09-04T00:27:05.986Z,61.09
2018-09-04T00:28:05.862Z,60.73
2018-09-04T00:29:05.803Z,60.73
2018-09-04T00:30:06.103Z,61.2
2018-09-04T00:31:05.814Z,61.14
2018-09-04T00:32:06.285Z,61.16
2018-09-04T00:33:05.844Z,61.25
2018-09-04T00:34:05.943Z,61.17
2018-09-04T00:35:06.834Z,61.25
2018-09-04T00:36:05.889Z,60.8
2018-09-04T00:37:05.629Z,61.15
2018-09-04T00:38:05.722Z,60.73
2018-09-04T00:39:05.675Z,61.27
2018-09-04T00:40:05.884Z,61.31
2018-09-04T00:41:05.910Z,61.08
2018-09-04T00:42:05.957Z,61.04
2018-09-04T00:43:05.891Z,61.33
2018-09-04T00:44:05.868Z,61.15
2018-09-04T00:45:05.854Z,60.74
2018-09-04T00:46:06.052Z,60.79
2018-09-04T00:47:05.727Z,61.04
2018-09-04T00:48:06.129Z,60.75
2018-09-04T00:49:06.074Z,61.14
2018-09-04T00:50:05.656Z,61.21
2018-09-04T00:51:05.920Z,60.82
2018-09-04T00:52:05.813Z,60.9
2018-09-04T00:53:05.729Z,60.93
2018-09-04T00:54:05.690Z,61.11
2018-09-04T00:55:05.767Z,61.19
2018-09-04T00:56:05.810Z,61.32
2018-09-04T00:57:05.834Z,60.84
2018-09-04T00:58:05.916Z,60.69
2018-09-04T00:59:06.283Z,61.28
2018-09-04T01:00:05.841Z,60.98
2018-09-04T01:01:05.993Z,61.22
2018-09-04T01:02:05.712Z,60.75
2018-09-04T01:03:05.683Z,61.06
2018-09-04T01:04:05.637Z,60.94
2018-09-04T01:05:06.021Z,61.27
2018-09-04T01:06:05.594Z,61.28
2018-09-04T01:07:05.775Z,60.68
2018-09-04T01:08:05.674Z,60.83
2018-09-04T01:09:05.857Z,60.94
2018-09-04T01:10:05.745Z,61.18
2018-09-04T01:11:05.873Z,60.83
2018-09-04T01:12:05.857Z,61.16
2018-09-04T01:13:05.804Z,60.86
2018-09-04T01:14:05.903Z,60.83
2018-09-04T01:15:05.704Z,60.86
2018-09-04T01:16:05.875Z,61.32
2018-09-04T01:17:05.819Z,61.25
2018-09-04T01:18:05.836Z,60.92
2018-09-04T01:19:05.792Z,61.19
2018-09-04T01:20:05.689Z,60.77
2018-09-04T01:21:05.792Z,60.91
2018-09-04T01:22:06.007Z,61.19
2018-09-04T01:23:05.880Z,61.2
2018-09-04T01:24:05.943Z,61.01
2018-09-04T01:25:05.686Z,60.87
2018-09-04T01:26:05.746Z,60.69
2018-09-04T01:27:05.795Z,61.27
2018-09-04T01:28:05.803Z,60.78
2018-09-04T01:29:05.776Z,60.77
2018-09-04T01:30:05.735Z,61.13
2018-09-04T01:31:05.757Z,60.82
2018-09-04T01:32:05.744Z,60.71
2018-09-04T01:33:05.852Z,61.09
2018-09-04T01:34:05.886Z,60.96
2018-09-04T01:35:05.823Z,61.17
2018-09-04T01:36:05.905Z,61.17
2018-09-04T01:37:05.920Z,60.82
2018-09-04T01:38:05.860Z,60.98
2018-09-04T01:39:05.965Z,60.81
2018-09-04T01:40:05.805Z,60.7
2018-09-04T01:41:05.923Z,60.8
2018-09-04T01:42:05.666Z,60.96
2018-09-04T01:43:05.869Z,61.11
2018-09-04T01:44:05.845Z,60.97
2018-09-04T01:45:05.723Z,61.29
2018-09-04T01:46:05.809Z,60.92
2018-09-04T01:47:05.867Z,61.15
2018-09-04T01:48:05.749Z,61.32
2018-09-04T01:49:05.795Z,61.16
2018-09-04T01:50:05.774Z,60.78
2018-09-04T01:51:05.696Z,61.18
2018-09-04T01:52:05.917Z,60.82
2018-09-04T01:53:05.756Z,61
2018-09-04T01:54:05.759Z,61.27
2018-09-04T01:55:05.935Z,61.32
2018-09-04T01:56:05.922Z,61.28
2018-09-04T01:57:05.954Z,61.29
2018-09-04T01:58:05.836Z,61.21
2018-09-04T01:59:06.018Z,61
2018-09-04T02:00:05.812Z,61.14
2018-09-04T02:01:05.955Z,61.09
2018-09-04T02:02:05.737Z,60.9
2018-09-04T02:03:05.908Z,61.2
2018-09-04T02:04:05.930Z,60.84
2018-09-04T02:05:05.881Z,61.11
2018-09-04T02:06:05.668Z,61.19
2018-09-04T02:07:05.853Z,61.31
2018-09-04T02:08:05.636Z,61.28
2018-09-04T02:09:05.756Z,60.83
2018-09-04T02:10:05.761Z,61.4
2018-09-04T02:11:05.739Z,60.89
2018-09-04T02:12:05.779Z,60.9
2018-09-04T02:13:06.004Z,61.11
2018-09-04T02:14:05.847Z,61.31
2018-09-04T02:15:05.972Z,60.86
2018-09-04T02:16:05.849Z,61.12
2018-09-04T02:17:05.974Z,60.85
2018-09-04T02:18:05.967Z,61.37
2018-09-04T02:19:05.699Z,60.82
2018-09-04T02:20:05.655Z,60.91
2018-09-04T02:21:06.086Z,60.86
2018-09-04T02:22:06.027Z,61.2
2018-09-04T02:23:05.922Z,60.96
2018-09-04T02:24:05.766Z,60.79
2018-09-04T02:25:05.852Z,60.88
2018-09-04T02:26:05.602Z,61.12
2018-09-04T02:27:05.732Z,60.76
2018-09-04T02:28:05.948Z,61.32
2018-09-04T02:29:05.767Z,61.35
2018-09-04T02:30:06.065Z,61.21
2018-09-04T02:31:05.854Z,61.06
2018-09-04T02:32:05.843Z,61.11
2018-09-04T02:33:05.917Z,61.16
2018-09-04T02:34:05.791Z,60.71
2018-09-04T02:35:05.800Z,60.8
2018-09-04T02:36:05.845Z,61.12
2018-09-04T02:37:05.719Z,61.2
2018-09-04T02:38:05.911Z,61.32
2018-09-04T02:39:05.828Z,60.9
2018-09-04T02:40:05.850Z,61.1
2018-09-04T02:41:05.689Z,60.91
2018-09-04T02:42:05.621Z,60.77
2018-09-04T02:43:05.862Z,61.32
2018-09-04T02:44:05.845Z,61.31
2018-09-04T02:45:05.702Z,61.17
2018-09-04T02:46:05.797Z,60.83
2018-09-04T02:47:05.748Z,60.83
2018-09-04T02:48:05.851Z,60.84
2018-09-04T02:49:05.728Z,61.21
2018-09-04T02:50:05.731Z,61.18
2018-09-04T02:51:05.999Z,60.79
2018-09-04T02:52:05.919Z,61.26
2018-09-04T02:53:05.875Z,60.77
2018-09-04T02:54:05.798Z,61.17
2018-09-04T02:55:05.747Z,61.17
2018-09-04T02:56:05.773Z,60.84
2018-09-04T02:57:05.680Z,61.31
2018-09-04T02:58:06.067Z,60.78
2018-09-04T02:59:06.001Z,61.28
2018-09-04T03:00:05.905Z,60.86
2018-09-04T03:01:05.881Z,61.3
2018-09-04T03:02:05.691Z,61.34
2018-09-04T03:03:05.865Z,61.44
2018-09-04T03:04:05.961Z,61.3
2018-09-04T03:05:06.222Z,61.1
2018-09-04T03:06:05.702Z,61.23
2018-09-04T03:07:05.591Z,61.2
2018-09-04T03:08:05.854Z,61.31
2018-09-04T03:09:05.805Z,60.96
2018-09-04T03:10:05.758Z,61.3
2018-09-04T03:11:05.920Z,60.79
2018-09-04T03:12:05.765Z,61.24
2018-09-04T03:13:05.660Z,61.31
2018-09-04T03:14:05.928Z,61.24
2018-09-04T03:15:06.025Z,61.21
2018-09-04T03:16:05.811Z,61.05
2018-09-04T03:17:05.982Z,60.78
2018-09-04T03:18:05.824Z,61.05
2018-09-04T03:19:05.759Z,60.81
2018-09-04T03:20:05.700Z,61.35
2018-09-04T03:21:05.855Z,61.03
2018-09-04T03:22:05.942Z,60.87
2018-09-04T03:23:05.998Z,61.27
2018-09-04T03:24:05.972Z,60.98
2018-09-04T03:25:05.893Z,61.25
2018-09-04T03:26:05.839Z,60.97
2018-09-04T03:27:05.891Z,61.39
2018-09-04T03:28:05.856Z,61.24
2018-09-04T03:29:05.742Z,61.22
2018-09-04T03:30:05.866Z,61.34
2018-09-04T03:31:05.877Z,60.82
2018-09-04T03:32:05.832Z,60.93
2018-09-04T03:33:05.797Z,61.22
2018-09-04T03:34:05.688Z,61.32
2018-09-04T03:35:05.861Z,61.27
2018-09-04T03:36:05.818Z,60.91
2018-09-04T03:37:05.727Z,60.84
2018-09-04T03:38:05.935Z,61.15
2018-09-04T03:39:05.700Z,61.37
2018-09-04T03:40:05.850Z,60.91
2018-09-04T03:41:05.840Z,60.85
2018-09-04T03:42:05.672Z,60.99
2018-09-04T03:43:06.095Z,61.1
2018-09-04T03:44:05.773Z,60.9
2018-09-04T03:45:05.856Z,60.83
2018-09-04T03:46:05.866Z,61.32
2018-09-04T03:47:05.759Z,60.73
2018-09-04T03:48:05.837Z,61.07
2018-09-04T03:49:06.478Z,60.85
2018-09-04T03:50:05.944Z,61.31
2018-09-04T03:51:05.814Z,61.02
2018-09-04T03:52:05.882Z,60.74
2018-09-04T03:53:05.898Z,60.84
2018-09-04T03:54:05.802Z,61.28
2018-09-04T03:55:05.895Z,61.28
2018-09-04T03:56:05.754Z,61.36
2018-09-04T03:57:05.779Z,61.16
2018-09-04T03:58:05.723Z,61.35
2018-09-04T03:59:05.900Z,61.17
2018-09-04T04:00:05.905Z,61.22
2018-09-04T04:01:05.714Z,60.75
2018-09-04T04:02:05.784Z,61.1
2018-09-04T04:03:05.629Z,61.26
2018-09-04T04:04:05.784Z,60.92
2018-09-04T04:05:05.586Z,61.23
2018-09-04T04:06:05.753Z,61.03
2018-09-04T04:07:05.773Z,61.22
2018-09-04T04:08:05.548Z,60.95
2018-09-04T04:09:05.745Z,61.27
2018-09-04T04:10:05.715Z,61.17
2018-09-04T04:11:05.608Z,60.94
2018-09-04T04:12:05.847Z,60.9
2018-09-04T04:13:05.670Z,61.1
2018-09-04T04:14:05.756Z,60.94
2018-09-04T04:15:05.670Z,61.24
2018-09-04T04:16:05.774Z,60.86
2018-09-04T04:17:05.593Z,61.05
2018-09-04T04:18:05.687Z,61.22
2018-09-04T04:19:05.837Z,60.92
2018-09-04T04:20:05.668Z,61.03
2018-09-04T04:21:05.699Z,60.81
2018-09-04T04:22:05.677Z,61.03
2018-09-04T04:23:05.686Z,61.04
2018-09-04T04:24:05.941Z,60.79
2018-09-04T04:25:05.794Z,61.04
2018-09-04T04:26:05.675Z,60.96
2018-09-04T04:27:05.705Z,60.75
2018-09-04T04:28:05.891Z,61.23
2018-09-04T04:29:05.582Z,61.37
2018-09-04T04:30:05.735Z,61.12
2018-09-04T04:31:05.789Z,61.32
2018-09-04T04:32:05.917Z,61.17
2018-09-04T04:33:06.105Z,60.81
2018-09-04T04:34:05.691Z,60.75
2018-09-04T04:35:05.632Z,61.07
2018-09-04T04:36:05.843Z,61.35
2018-09-04T04:37:05.853Z,60.83
2018-09-04T04:38:05.680Z,60.76
2018-09-04T04:39:05.684Z,61.33
2018-09-04T04:40:06.042Z,61.21
2018-09-04T04:41:05.655Z,61.18
2018-09-04T04:42:05.795Z,61.12
2018-09-04T04:43:05.686Z,60.8
2018-09-04T04:44:05.922Z,60.83
2018-09-04T04:45:05.794Z,61.38
2018-09-04T04:46:05.629Z,60.77
2018-09-04T04:47:06.040Z,60.78
2018-09-04T04:48:05.823Z,60.9
2018-09-04T04:49:05.768Z,60.87
2018-09-04T04:50:05.801Z,61.26
2018-09-04T04:51:05.899Z,61.29
2018-09-04T04:52:05.803Z,61.29
2018-09-04T04:53:05.756Z,60.85
2018-09-04T04:54:05.842Z,60.91
2018-09-04T04:55:05.986Z,60.79
2018-09-04T04:56:05.863Z,61.05
2018-09-04T04:57:05.952Z,60.84
2018-09-04T04:58:05.622Z,61.37
2018-09-04T04:59:05.729Z,61.03
2018-09-04T05:00:05.782Z,60.87
2018-09-04T05:01:05.800Z,61.18
2018-09-04T05:02:05.624Z,60.94
2018-09-04T05:03:05.666Z,61.25
2018-09-04T05:04:05.975Z,61.16
2018-09-04T05:05:05.738Z,61.4
2018-09-04T05:06:05.682Z,60.81
2018-09-04T05:07:05.857Z,60.87
2018-09-04T05:08:05.879Z,61.34
2018-09-04T05:09:05.815Z,61.33
2018-09-04T05:10:05.590Z,61.25
2018-09-04T05:11:05.824Z,61.27
2018-09-04T05:12:05.947Z,61.17
2018-09-04T05:13:05.836Z,60.97
2018-09-04T05:14:05.649Z,61.2
2018-09-04T05:15:05.584Z,61.03
2018-09-04T05:16:05.709Z,61.34
2018-09-04T05:17:05.861Z,61.43
2018-09-04T05:18:05.637Z,60.93
2018-09-04T05:19:05.941Z,60.77
2018-09-04T05:20:05.831Z,60.93
2018-09-04T05:21:05.640Z,61.3
2018-09-04T05:22:05.709Z,61.28
2018-09-04T05:23:05.665Z,61.22
2018-09-04T05:24:05.761Z,61.3
2018-09-04T05:25:05.877Z,61.15
2018-09-04T05:26:05.765Z,60.98
2018-09-04T05:27:05.580Z,61.36
2018-09-04T05:28:05.768Z,61.28
2018-09-04T05:29:05.678Z,61.08
2018-09-04T05:30:05.772Z,61.42
2018-09-04T05:31:05.805Z,61.04
2018-09-04T05:32:05.669Z,61.33
2018-09-04T05:33:05.783Z,61.35
2018-09-04T05:34:05.654Z,61.28
2018-09-04T05:35:09.538Z,61.31
2018-09-04T05:36:05.662Z,61.17
2018-09-04T05:37:05.762Z,61.48
2018-09-04T05:38:06.244Z,61.46
2018-09-04T05:39:05.703Z,61.61
2018-09-04T05:40:05.789Z,61.08
2018-09-04T05:41:05.797Z,60.94
2018-09-04T05:42:05.649Z,61.32
2018-09-04T05:43:05.964Z,61.25
2018-09-04T05:44:05.983Z,61.05
2018-09-04T05:45:05.723Z,61.58
2018-09-04T05:46:05.734Z,61.16
2018-09-04T05:47:05.590Z,61.61
2018-09-04T05:48:05.793Z,61.55
2018-09-04T05:49:05.659Z,61.33
2018-09-04T05:50:05.829Z,61.47
2018-09-04T05:51:05.705Z,61.6
2018-09-04T05:52:05.700Z,61.66
2018-09-04T05:53:05.623Z,61.25
2018-09-04T05:54:06.010Z,61.58
2018-09-04T05:55:06.108Z,61.53
2018-09-04T05:56:05.648Z,61.47
2018-09-04T05:57:05.779Z,60.98
2018-09-04T05:58:05.910Z,61.25
2018-09-04T05:59:05.539Z,61.37
2018-09-04T06:00:05.704Z,61.22
2018-09-04T06:01:05.786Z,61.54
2018-09-04T06:02:05.800Z,61.6
2018-09-04T06:03:05.674Z,61.45
2018-09-04T06:04:05.580Z,61.48
2018-09-04T06:05:05.613Z,61.48
2018-09-04T06:06:05.590Z,61.23
2018-09-04T06:07:05.627Z,61.56
2018-09-04T06:08:05.707Z,61.5
2018-09-04T06:09:05.786Z,61.1
2018-09-04T06:10:05.741Z,61.55
2018-09-04T06:11:05.737Z,60.99
2018-09-04T06:12:05.847Z,61.46
2018-09-04T06:13:05.936Z,61.11
2018-09-04T06:14:05.866Z,61.04
2018-09-04T06:15:05.788Z,61.11
2018-09-04T06:16:05.845Z,61.4
2018-09-04T06:17:05.716Z,61.49
2018-09-04T06:18:06.053Z,61.44
2018-09-04T06:19:05.670Z,61.05
2018-09-04T06:20:05.932Z,61.04
2018-09-04T06:21:05.951Z,61.15
2018-09-04T06:22:05.855Z,61.36
2018-09-04T06:23:05.813Z,61.41
2018-09-04T06:24:05.717Z,60.95
2018-09-04T06:25:05.751Z,60.94
2018-09-04T06:26:05.742Z,61.11
2018-09-04T06:27:05.881Z,61.03
2018-09-04T06:28:05.708Z,60.99
2018-09-04T06:29:05.826Z,61.31
2018-09-04T06:30:05.768Z,60.94
2018-09-04T06:31:05.920Z,61.07
2018-09-04T06:32:05.713Z,61.08
2018-09-04T06:33:05.893Z,61.05
2018-09-04T06:34:05.872Z,60.98
2018-09-04T06:35:05.716Z,61.09
2018-09-04T06:36:05.832Z,61.37
2018-09-04T06:37:06.588Z,60.87
2018-09-04T06:38:05.838Z,61.4
2018-09-04T06:39:05.691Z,61.39
2018-09-04T06:40:05.716Z,61.05
2018-09-04T06:41:05.682Z,61.55
2018-09-04T06:42:05.743Z,61.2
2018-09-04T06:43:05.728Z,61.03
2018-09-04T06:44:05.793Z,61.2
2018-09-04T06:45:05.825Z,61.37
2018-09-04T06:46:05.711Z,61.31
2018-09-04T06:47:05.777Z,60.86
2018-09-04T06:48:05.658Z,61.13
2018-09-04T06:49:05.668Z,60.93
2018-09-04T06:50:05.545Z,61.05
2018-09-04T06:51:05.921Z,61.35
2018-09-04T06:52:05.747Z,61.09
2018-09-04T06:53:05.578Z,60.95
2018-09-04T06:54:05.664Z,61.35
2018-09-04T06:55:05.749Z,60.87
2018-09-04T06:56:05.639Z,61.22
2018-09-04T06:57:05.648Z,60.96
2018-09-04T06:58:05.645Z,61.25
2018-09-04T06:59:05.684Z,60.8
2018-09-04T07:00:05.807Z,60.89
2018-09-04T07:01:06.084Z,60.94
2018-09-04T07:02:05.944Z,61.33
2018-09-04T07:03:05.637Z,61.08
2018-09-04T07:04:05.703Z,61.39
2018-09-04T07:05:05.712Z,61.02
2018-09-04T07:06:06.172Z,61.28
2018-09-04T07:07:05.733Z,60.87
2018-09-04T07:08:05.846Z,61.13
2018-09-04T07:09:05.940Z,61.39
2018-09-04T07:10:05.739Z,60.88
2018-09-04T07:11:05.728Z,61.36
2018-09-04T07:12:05.827Z,61.3
2018-09-04T07:13:05.661Z,60.96
2018-09-04T07:14:05.701Z,60.89
2018-09-04T07:15:05.682Z,61.39
2018-09-04T07:16:05.692Z,61.33
2018-09-04T07:17:06.366Z,61.27
2018-09-04T07:18:05.901Z,60.86
2018-09-04T07:19:05.665Z,60.95
2018-09-04T07:20:05.590Z,61.43
2018-09-04T07:21:05.709Z,60.98
2018-09-04T07:22:05.669Z,61.36
2018-09-04T07:23:06.104Z,61.18
2018-09-04T07:24:05.884Z,61.39
2018-09-04T07:25:05.848Z,61.36
2018-09-04T07:26:05.829Z,60.92
2018-09-04T07:27:05.834Z,60.79
2018-09-04T07:28:05.798Z,60.91
2018-09-04T07:29:05.591Z,60.93
2018-09-04T07:30:05.801Z,60.83
2018-09-04T07:31:05.924Z,61.34
2018-09-04T07:32:05.685Z,61.11
2018-09-04T07:33:05.823Z,61.31
2018-09-04T07:34:05.838Z,61.16
2018-09-04T07:35:05.773Z,61.36
2018-09-04T07:36:05.692Z,61.01
2018-09-04T07:37:05.755Z,61.01
2018-09-04T07:38:05.647Z,61.08
2018-09-04T07:39:05.754Z,60.98
2018-09-04T07:40:05.612Z,61.19
2018-09-04T07:41:05.811Z,61.22
2018-09-04T07:42:05.839Z,60.92
2018-09-04T07:43:05.712Z,61.22
2018-09-04T07:44:05.816Z,60.93
2018-09-04T07:45:05.740Z,61.16
2018-09-04T07:46:05.655Z,60.94
2018-09-04T07:47:05.773Z,60.82
2018-09-04T07:48:05.608Z,60.84
2018-09-04T07:49:05.735Z,60.94
2018-09-04T07:50:05.747Z,61.21
2018-09-04T07:51:05.672Z,61.14
2018-09-04T07:52:05.725Z,61.02
2018-09-04T07:53:05.603Z,61.17
2018-09-04T07:54:05.794Z,61.36
2018-09-04T07:55:05.837Z,60.99
2018-09-04T07:56:05.561Z,60.75
2018-09-04T07:57:05.802Z,60.81
2018-09-04T07:58:05.641Z,61.24
2018-09-04T07:59:05.599Z,60.93
2018-09-04T08:00:05.664Z,61.01
2018-09-04T08:01:05.936Z,60.78
2018-09-04T08:02:05.651Z,61.29
2018-09-04T08:03:05.575Z,60.88
2018-09-04T08:04:05.606Z,61.05
2018-09-04T08:05:05.529Z,61.22
2018-09-04T08:06:05.684Z,61.35
2018-09-04T08:07:05.799Z,61.22
2018-09-04T08:08:05.654Z,61.1
2018-09-04T08:09:05.725Z,61.28
2018-09-04T08:10:05.992Z,60.81
2018-09-04T08:11:05.603Z,61.23
2018-09-04T08:12:05.681Z,60.82
2018-09-04T08:13:05.710Z,61.3
2018-09-04T08:14:05.637Z,60.86
2018-09-04T08:15:05.650Z,61.22
2018-09-04T08:16:05.510Z,61.24
2018-09-04T08:17:05.832Z,61.5
2018-09-04T08:18:05.571Z,61.12
2018-09-04T08:19:05.981Z,61.15
2018-09-04T08:20:05.843Z,61.3
2018-09-04T08:21:05.667Z,60.88
2018-09-04T08:22:05.570Z,61.16
2018-09-04T08:23:05.812Z,61.19
2018-09-04T08:24:05.830Z,60.84
2018-09-04T08:25:05.930Z,60.73
2018-09-04T08:26:05.984Z,61.34
2018-09-04T08:27:05.778Z,61.28
2018-09-04T08:28:05.722Z,60.74
2018-09-04T08:29:05.758Z,60.97
2018-09-04T08:30:05.753Z,60.81
2018-09-04T08:31:05.617Z,60.86
2018-09-04T08:32:05.692Z,61.03
2018-09-04T08:33:06.010Z,60.72
2018-09-04T08:34:05.628Z,61.08
2018-09-04T08:35:05.778Z,61.17
2018-09-04T08:36:05.649Z,60.8
2018-09-04T08:37:05.587Z,61.13
2018-09-04T08:38:05.636Z,61.17
2018-09-04T08:39:05.790Z,61.28
2018-09-04T08:40:06.071Z,61.31
2018-09-04T08:41:05.782Z,61.07
2018-09-04T08:42:05.622Z,61.14
2018-09-04T08:43:05.512Z,61.35
2018-09-04T08:44:05.835Z,60.76
2018-09-04T08:45:05.951Z,60.7
2018-09-04T08:46:05.678Z,61.32
2018-09-04T08:47:05.846Z,61.02
2018-09-04T08:48:05.880Z,60.96
2018-09-04T08:49:05.745Z,60.71
2018-09-04T08:50:05.801Z,61.17
2018-09-04T08:51:05.753Z,60.81
2018-09-04T08:52:05.630Z,60.82
2018-09-04T08:53:05.708Z,61.15
2018-09-04T08:54:05.683Z,60.99
2018-09-04T08:55:05.638Z,60.81
2018-09-04T08:56:05.580Z,61.14
2018-09-04T08:57:05.699Z,61.21
2018-09-04T08:58:05.648Z,60.94
2018-09-04T08:59:05.699Z,61.24
2018-09-04T09:00:05.894Z,61.29
2018-09-04T09:01:05.719Z,60.82
2018-09-04T09:02:05.771Z,61.49
2018-09-04T09:03:05.662Z,61.22
2018-09-04T09:04:05.646Z,61.5
2018-09-04T09:05:05.724Z,61.23
2018-09-04T09:06:05.578Z,61.28
2018-09-04T09:07:05.665Z,61.66
2018-09-04T09:08:05.797Z,61.97
2018-09-04T09:09:05.562Z,61.9
2018-09-04T09:10:05.908Z,61.95
2018-09-04T09:11:05.582Z,61.82
2018-09-04T09:12:05.721Z,61.59
2018-09-04T09:13:05.672Z,61.64
2018-09-04T09:14:05.647Z,61.6
2018-09-04T09:15:05.650Z,61.81
2018-09-04T09:16:05.728Z,61.62
2018-09-04T09:17:05.606Z,61.81
2018-09-04T09:18:05.920Z,61.98
2018-09-04T09:19:05.597Z,61.94
2018-09-04T09:20:05.849Z,61.69
2018-09-04T09:21:05.646Z,61.54
2018-09-04T09:22:05.753Z,61.62
2018-09-04T09:23:05.669Z,61.67
2018-09-04T09:24:05.786Z,61.95
2018-09-04T09:25:05.640Z,61.5
2018-09-04T09:26:05.743Z,61.51
2018-09-04T09:27:05.634Z,61.49
2018-09-04T09:28:05.608Z,62.01
2018-09-04T09:29:05.571Z,61.72
2018-09-04T09:30:05.712Z,61.95
2018-09-04T09:31:05.720Z,62
2018-09-04T09:32:05.544Z,61.77
2018-09-04T09:33:05.560Z,61.87
2018-09-04T09:34:05.619Z,61.43
2018-09-04T09:35:05.833Z,61.45
2018-09-04T09:36:05.760Z,61.45
2018-09-04T09:37:05.976Z,61.41
2018-09-04T09:38:05.629Z,61.46
2018-09-04T09:39:05.874Z,61.89
2018-09-04T09:40:05.481Z,61.35
2018-09-04T09:41:05.825Z,62
2018-09-04T09:42:05.608Z,61.57
2018-09-04T09:43:05.838Z,61.35
2018-09-04T09:44:05.962Z,61.5
2018-09-04T09:45:05.614Z,61.71
2018-09-04T09:46:05.636Z,61.77
2018-09-04T09:47:05.918Z,61.25
2018-09-04T09:48:05.694Z,61.85
2018-09-04T09:49:06.088Z,61.76
2018-09-04T09:50:05.706Z,61.6
2018-09-04T09:51:05.642Z,61.83
2018-09-04T09:52:05.694Z,61.67
2018-09-04T09:53:06.127Z,61.6
2018-09-04T09:54:05.887Z,61.43
2018-09-04T09:55:05.685Z,61.27
2018-09-04T09:56:05.892Z,61.53
2018-09-04T09:57:05.849Z,61.75
2018-09-04T09:58:05.611Z,61.26
2018-09-04T09:59:05.735Z,61.58
2018-09-04T10:00:05.863Z,61.69
2018-09-04T10:01:05.956Z,61.6
2018-09-04T10:02:05.651Z,61.68
2018-09-04T10:03:05.845Z,61.82
2018-09-04T10:04:05.913Z,61.25
2018-09-04T10:05:05.644Z,61.64
2018-09-04T10:06:05.569Z,61.48
2018-09-04T10:07:05.540Z,61.4
2018-09-04T10:08:06.055Z,61.63
2018-09-04T10:09:05.800Z,61.78
2018-09-04T10:10:05.845Z,61.68
2018-09-04T10:11:05.848Z,61.75
2018-09-04T10:12:06.035Z,61.22
2018-09-04T10:13:05.575Z,61.67
2018-09-04T10:14:05.489Z,61.6
2018-09-04T10:15:05.611Z,61.74
2018-09-04T10:16:05.693Z,61.17
2018-09-04T10:17:05.911Z,61.15
2018-09-04T10:18:05.797Z,61.27
2018-09-04T10:19:05.784Z,61.58
2018-09-04T10:20:05.822Z,61.08
2018-09-04T10:21:05.773Z,61.55
2018-09-04T10:22:05.680Z,61.51
2018-09-04T10:23:05.753Z,61.26
2018-09-04T10:24:05.734Z,61.33
2018-09-04T10:25:05.601Z,61.43
2018-09-04T10:26:05.556Z,61.1
2018-09-04T10:27:05.734Z,61.56
2018-09-04T10:28:05.523Z,61.37
2018-09-04T10:29:05.906Z,61.64
2018-09-04T10:30:05.663Z,61.64
2018-09-04T10:31:05.627Z,61.86
2018-09-04T10:32:05.758Z,61.37
2018-09-04T10:33:05.721Z,61.41
2018-09-04T10:34:05.593Z,61.94
2018-09-04T10:35:05.632Z,61.87
2018-09-04T10:36:05.746Z,61.55
2018-09-04T10:37:05.759Z,61.84
2018-09-04T10:38:05.673Z,62.07
2018-09-04T10:39:05.741Z,61.98
2018-09-04T10:40:05.742Z,62.05
2018-09-04T10:41:05.606Z,61.64
2018-09-04T10:42:05.831Z,62.13
2018-09-04T10:43:05.556Z,61.94
2018-09-04T10:44:05.820Z,62.06
2018-09-04T10:45:05.751Z,61.98
2018-09-04T10:46:05.570Z,61.93
2018-09-04T10:47:05.750Z,61.99
2018-09-04T10:48:05.684Z,61.9
2018-09-04T10:49:05.523Z,62.17
2018-09-04T10:50:05.546Z,61.78
2018-09-04T10:51:05.707Z,62.09
2018-09-04T10:52:05.661Z,61.92
2018-09-04T10:53:05.666Z,61.66
2018-09-04T10:54:05.564Z,62.09
2018-09-04T10:55:05.649Z,61.54
2018-09-04T10:56:05.916Z,61.68
2018-09-04T10:57:05.629Z,61.53
2018-09-04T10:58:05.809Z,61.65
2018-09-04T10:59:05.826Z,61.74
2018-09-04T11:00:05.681Z,61.81
2018-09-04T11:01:05.684Z,61.62
2018-09-04T11:02:05.604Z,62.23
2018-09-04T11:03:06.059Z,62.01
2018-09-04T11:04:06.011Z,61.67
2018-09-04T11:05:05.791Z,62.11
2018-09-04T11:06:05.713Z,61.99
2018-09-04T11:07:05.533Z,61.66
2018-09-04T11:08:05.786Z,61.86
2018-09-04T11:09:06.001Z,61.69
2018-09-04T11:10:05.575Z,61.55
2018-09-04T11:11:05.759Z,61.46
2018-09-04T11:12:05.560Z,61.75
2018-09-04T11:13:05.633Z,61.79
2018-09-04T11:14:05.866Z,61.5
2018-09-04T11:15:05.689Z,61.59
2018-09-04T11:16:05.936Z,61.76
2018-09-04T11:17:05.711Z,61.71
2018-09-04T11:18:05.581Z,61.74
2018-09-04T11:19:05.612Z,62.19
2018-09-04T11:20:05.970Z,62
2018-09-04T11:21:05.502Z,61.97
2018-09-04T11:22:05.683Z,61.63
2018-09-04T11:23:05.592Z,62.17
2018-09-04T11:24:05.832Z,62.03
2018-09-04T11:25:05.609Z,61.87
2018-09-04T11:26:05.706Z,61.73
2018-09-04T11:27:05.757Z,61.76
2018-09-04T11:28:05.883Z,62.05
2018-09-04T11:29:05.543Z,61.59
2018-09-04T11:30:05.593Z,62.03
2018-09-04T11:31:05.594Z,61.74
2018-09-04T11:32:05.827Z,61.66
2018-09-04T11:33:05.787Z,62
2018-09-04T11:34:05.894Z,61.48
2018-09-04T11:35:05.778Z,61.94
2018-09-04T11:36:05.695Z,61.87
2018-09-04T11:37:05.726Z,61.53
2018-09-04T11:38:05.762Z,61.98
2018-09-04T11:39:05.749Z,61.51
2018-09-04T11:40:05.573Z,61.98
2018-09-04T11:41:05.655Z,62.14
2018-09-04T11:42:05.707Z,61.67
2018-09-04T11:43:05.929Z,61.95
2018-09-04T11:44:05.669Z,62.12
2018-09-04T11:45:05.650Z,62.06
2018-09-04T11:46:05.908Z,61.52
2018-09-04T11:47:05.756Z,61.94
2018-09-04T11:48:06.042Z,61.68
2018-09-04T11:49:05.714Z,62.11
2018-09-04T11:50:05.695Z,61.46
2018-09-04T11:51:07.379Z,61.92
2018-09-04T11:52:05.670Z,62.02
2018-09-04T11:53:06.022Z,61.84
2018-09-04T11:54:05.577Z,61.97
2018-09-04T11:55:05.692Z,61.87
2018-09-04T11:56:05.766Z,61.55
2018-09-04T11:57:05.644Z,61.76
2018-09-04T11:58:05.486Z,61.59
2018-09-04T11:59:05.593Z,61.48
2018-09-04T12:00:05.618Z,61.95
2018-09-04T12:01:05.597Z,61.96
2018-09-04T12:02:05.623Z,61.76
2018-09-04T12:03:05.606Z,61.75
2018-09-04T12:04:05.605Z,61.58
2018-09-04T12:05:05.546Z,61.64
2018-09-04T12:06:05.594Z,61.63
2018-09-04T12:07:05.550Z,61.83
2018-09-04T12:08:05.713Z,61.69
2018-09-04T12:09:05.517Z,61.71
2018-09-04T12:10:05.659Z,62.24
2018-09-04T12:11:05.627Z,61.7
2018-09-04T12:12:05.700Z,61.76
2018-09-04T12:13:05.780Z,61.49
2018-09-04T12:14:05.719Z,61.96
2018-09-04T12:15:05.553Z,61.47
2018-09-04T12:16:05.646Z,61.96
2018-09-04T12:17:05.676Z,62.04
2018-09-04T12:18:05.599Z,61.57
2018-09-04T12:19:05.711Z,61.94
2018-09-04T12:20:05.654Z,61.52
2018-09-04T12:21:06.149Z,61.61
2018-09-04T12:22:05.637Z,61.57
2018-09-04T12:23:05.613Z,61.45
2018-09-04T12:24:05.658Z,61.93
2018-09-04T12:25:05.746Z,61.58
2018-09-04T12:26:05.889Z,61.63
2018-09-04T12:27:05.840Z,61.69
2018-09-04T12:28:05.675Z,62.05
2018-09-04T12:29:05.609Z,62.07
2018-09-04T12:30:05.876Z,61.62
2018-09-04T12:31:05.691Z,61.91
2018-09-04T12:32:05.644Z,61.41
2018-09-04T12:33:06.144Z,61.4
2018-09-04T12:34:05.768Z,61.94
2018-09-04T12:35:06.889Z,61.56
2018-09-04T12:36:05.632Z,61.42
2018-09-04T12:37:05.519Z,61.8
2018-09-04T12:38:05.710Z,61.93
2018-09-04T12:39:05.852Z,61.89
2018-09-04T12:40:05.637Z,61.87
2018-09-04T12:41:05.608Z,61.81
2018-09-04T12:42:05.908Z,61.43
2018-09-04T12:43:05.857Z,61.38
2018-09-04T12:44:05.654Z,61.73
2018-09-04T12:45:05.780Z,61.81
2018-09-04T12:46:05.601Z,61.58
2018-09-04T12:47:05.620Z,61.56
2018-09-04T12:48:05.762Z,61.68
2018-09-04T12:49:05.794Z,61.81
2018-09-04T12:50:05.648Z,61.56
2018-09-04T12:51:05.468Z,61.86
2018-09-04T12:52:05.803Z,61.91
2018-09-04T12:53:05.694Z,61.91
2018-09-04T12:54:05.886Z,61.28
2018-09-04T12:55:05.696Z,61.3